Hlavní strana
METAR-TAF:

METAR-TAF

Letiště :

Narrandera, Austrálie

zeměpisná šířka: 34-42-08S, zeměpisná délka: 146-30-44E, výška: 144 m

Aktuální stav počasí

Zpráva byla vytvořena před 1 hodinou a 10 minutami, v 04:00 UTC
Jihojihozápadní vítr 6 kt
Teplota 18°C
Vlhkost vzduchu 52%
Tlak 1020 hPa
Viditelnost 10 km a více
Polojasno ve výšce 4400 ft

METAR: YNAR 070400Z AUTO 20006KT 9999 // SCT044 18/08 Q1020

Čas: 15:10 (05:10 UTC)


TAF: chybějící

Stav a předpovědi počasí z více než 4 000 letišť (zprávy METAR a TAF).

Červené a žluté tečky na mapě představují dostupné meteorologické stanice.

Když kurzor umístíte na tečku, zobrazí se název stanice.

Pak kliknutím zobrazíte stav a předpověď počasí.

Chcete-li změnit mapu, kliknutím na zelené tlačítko se znaménkem +mapu přiblížíte, kliknutím na zelené tlačítko se znaménkem – mapu oddálíte a kliknutím na zelené šipky přejdete na sousední mapy.


METAR-TAF: